sensor_id;sensor_type;location;lat;lon;timestamp;P1;durP1;ratioP1;P2;durP2;ratioP2
62790;SDS011;48830;53.426;10.300;2023-02-01T00:01:46;11.37;;;2.57;;
62790;SDS011;48830;53.426;10.300;2023-02-01T00:04:11;10.73;;;2.67;;
62790;SDS011;48830;53.426;10.300;2023-02-01T00:06:37;17.00;;;3.13;;
62790;SDS011;48830;53.426;10.300;2023-02-01T00:09:02;19.27;;;4.00;;
62790;SDS011;48830;53.426;10.300;2023-02-01T00:11:28;13.30;;;3.50;;
62790;SDS011;48830;53.426;10.300;2023-02-01T00:13:54;14.13;;;3.57;;
62790;SDS011;48830;53.426;10.300;2023-02-01T00:16:21;22.57;;;3.83;;
62790;SDS011;48830;53.426;10.300;2023-02-01T00:18:49;18.73;;;3.50;;
62790;SDS011;48830;53.426;10.300;2023-02-01T00:21:17;25.93;;;4.00;;
62790;SDS011;48830;53.426;10.300;2023-02-01T00:23:45;17.07;;;3.67;;
62790;SDS011;48830;53.426;10.300;2023-02-01T00:26:15;25.03;;;4.30;;
62790;SDS011;48830;53.426;10.300;2023-02-01T00:28:42;17.50;;;3.40;;
62790;SDS011;48830;53.426;10.300;2023-02-01T00:31:08;20.77;;;3.83;;
62790;SDS011;48830;53.426;10.300;2023-02-01T00:33:34;21.50;;;3.70;;
62790;SDS011;48830;53.426;10.300;2023-02-01T00:36:01;18.30;;;4.37;;
62790;SDS011;48830;53.426;10.300;2023-02-01T00:38:31;16.93;;;3.83;;
62790;SDS011;48830;53.426;10.300;2023-02-01T00:41:09;21.23;;;3.97;;
62790;SDS011;48830;53.426;10.300;2023-02-01T00:43:39;24.03;;;5.07;;
62790;SDS011;48830;53.426;10.300;2023-02-01T00:46:05;22.03;;;4.80;;
62790;SDS011;48830;53.426;10.300;2023-02-01T00:48:31;15.20;;;4.20;;
62790;SDS011;48830;53.426;10.300;2023-02-01T00:51:00;18.83;;;4.47;;
62790;SDS011;48830;53.426;10.300;2023-02-01T00:53:29;23.50;;;4.27;;
62790;SDS011;48830;53.426;10.300;2023-02-01T00:55:55;24.70;;;4.47;;
62790;SDS011;48830;53.426;10.300;2023-02-01T00:58:21;20.27;;;4.10;;
62790;SDS011;48830;53.426;10.300;2023-02-01T01:00:48;23.30;;;4.60;;
62790;SDS011;48830;53.426;10.300;2023-02-01T01:03:14;20.40;;;5.20;;
62790;SDS011;48830;53.426;10.300;2023-02-01T01:05:44;29.87;;;5.40;;
62790;SDS011;48830;53.426;10.300;2023-02-01T01:08:10;23.70;;;4.67;;
62790;SDS011;48830;53.426;10.300;2023-02-01T01:10:35;30.27;;;4.90;;
62790;SDS011;48830;53.426;10.300;2023-02-01T01:13:01;21.37;;;4.60;;
62790;SDS011;48830;53.426;10.300;2023-02-01T01:15:26;23.23;;;4.97;;
62790;SDS011;48830;53.426;10.300;2023-02-01T01:17:52;18.20;;;3.97;;
62790;SDS011;48830;53.426;10.300;2023-02-01T01:20:17;21.40;;;4.30;;
62790;SDS011;48830;53.426;10.300;2023-02-01T01:22:43;26.27;;;5.57;;
62790;SDS011;48830;53.426;10.300;2023-02-01T01:25:08;25.83;;;4.77;;
62790;SDS011;48830;53.426;10.300;2023-02-01T01:27:33;28.37;;;4.80;;
62790;SDS011;48830;53.426;10.300;2023-02-01T01:29:59;28.60;;;5.80;;
62790;SDS011;48830;53.426;10.300;2023-02-01T01:32:24;20.47;;;4.37;;
62790;SDS011;48830;53.426;10.300;2023-02-01T01:34:50;22.07;;;4.93;;
62790;SDS011;48830;53.426;10.300;2023-02-01T01:37:15;23.27;;;4.70;;
62790;SDS011;48830;53.426;10.300;2023-02-01T01:39:41;21.83;;;4.63;;
62790;SDS011;48830;53.426;10.300;2023-02-01T01:42:08;26.43;;;5.23;;
62790;SDS011;48830;53.426;10.300;2023-02-01T01:47:26;20.00;;;4.23;;
62790;SDS011;48830;53.426;10.300;2023-02-01T01:49:59;21.37;;;4.90;;
62790;SDS011;48830;53.426;10.300;2023-02-01T01:52:25;21.97;;;4.57;;
62790;SDS011;48830;53.426;10.300;2023-02-01T01:54:52;22.57;;;4.60;;
62790;SDS011;48830;53.426;10.300;2023-02-01T01:57:24;19.70;;;4.60;;
62790;SDS011;48830;53.426;10.300;2023-02-01T01:59:59;28.83;;;4.90;;
62790;SDS011;48830;53.426;10.300;2023-02-01T02:02:40;25.63;;;4.43;;
62790;SDS011;48830;53.426;10.300;2023-02-01T02:05:08;19.27;;;4.17;;
62790;SDS011;48830;53.426;10.300;2023-02-01T02:07:35;22.77;;;5.67;;
62790;SDS011;48830;53.426;10.300;2023-02-01T02:10:06;23.97;;;4.83;;
62790;SDS011;48830;53.426;10.300;2023-02-01T02:12:37;33.47;;;5.20;;
62790;SDS011;48830;53.426;10.300;2023-02-01T02:15:05;21.77;;;4.53;;
62790;SDS011;48830;53.426;10.300;2023-02-01T02:20:22;25.77;;;5.60;;
62790;SDS011;48830;53.426;10.300;2023-02-01T02:25:58;26.40;;;5.87;;
62790;SDS011;48830;53.426;10.300;2023-02-01T02:34:28;24.20;;;4.70;;
62790;SDS011;48830;53.426;10.300;2023-02-01T02:42:08;25.90;;;5.27;;
62790;SDS011;48830;53.426;10.300;2023-02-01T02:44:55;20.57;;;4.43;;
62790;SDS011;48830;53.426;10.300;2023-02-01T02:47:54;24.93;;;5.00;;
62790;SDS011;48830;53.426;10.300;2023-02-01T02:50:28;28.07;;;5.00;;
62790;SDS011;48830;53.426;10.300;2023-02-01T02:53:22;26.47;;;5.10;;
62790;SDS011;48830;53.426;10.300;2023-02-01T02:56:13;22.53;;;4.60;;
62790;SDS011;48830;53.426;10.300;2023-02-01T02:58:59;24.53;;;5.80;;
62790;SDS011;48830;53.426;10.300;2023-02-01T03:01:46;23.47;;;5.23;;
62790;SDS011;48830;53.426;10.300;2023-02-01T03:04:31;24.43;;;4.90;;
62790;SDS011;48830;53.426;10.300;2023-02-01T03:06:57;24.30;;;5.47;;
62790;SDS011;48830;53.426;10.300;2023-02-01T03:09:26;21.73;;;4.93;;
62790;SDS011;48830;53.426;10.300;2023-02-01T03:11:59;28.57;;;4.80;;
62790;SDS011;48830;53.426;10.300;2023-02-01T03:14:49;25.33;;;6.50;;
62790;SDS011;48830;53.426;10.300;2023-02-01T03:17:19;22.00;;;4.23;;
62790;SDS011;48830;53.426;10.300;2023-02-01T03:19:51;20.77;;;4.80;;
62790;SDS011;48830;53.426;10.300;2023-02-01T03:22:26;20.30;;;4.43;;
62790;SDS011;48830;53.426;10.300;2023-02-01T03:25:02;20.47;;;4.70;;
62790;SDS011;48830;53.426;10.300;2023-02-01T03:27:55;23.87;;;4.30;;
62790;SDS011;48830;53.426;10.300;2023-02-01T03:30:34;19.70;;;4.70;;
62790;SDS011;48830;53.426;10.300;2023-02-01T03:33:04;20.27;;;4.17;;
62790;SDS011;48830;53.426;10.300;2023-02-01T03:38:37;17.00;;;4.00;;
62790;SDS011;48830;53.426;10.300;2023-02-01T03:41:15;25.33;;;4.37;;
62790;SDS011;48830;53.426;10.300;2023-02-01T03:43:53;16.83;;;3.90;;
62790;SDS011;48830;53.426;10.300;2023-02-01T03:46:30;20.27;;;4.20;;
62790;SDS011;48830;53.426;10.300;2023-02-01T03:49:01;18.00;;;3.77;;
62790;SDS011;48830;53.426;10.300;2023-02-01T03:51:30;17.80;;;3.90;;
62790;SDS011;48830;53.426;10.300;2023-02-01T03:53:57;15.27;;;3.43;;
62790;SDS011;48830;53.426;10.300;2023-02-01T03:56:25;16.33;;;3.60;;
62790;SDS011;48830;53.426;10.300;2023-02-01T03:58:53;13.80;;;3.43;;
62790;SDS011;48830;53.426;10.300;2023-02-01T04:01:27;14.63;;;3.47;;
62790;SDS011;48830;53.426;10.300;2023-02-01T04:03:54;10.17;;;2.43;;
62790;SDS011;48830;53.426;10.300;2023-02-01T04:06:21;7.13;;;1.70;;
62790;SDS011;48830;53.426;10.300;2023-02-01T04:08:47;8.03;;;2.10;;
62790;SDS011;48830;53.426;10.300;2023-02-01T04:11:12;9.70;;;2.20;;
62790;SDS011;48830;53.426;10.300;2023-02-01T04:13:38;14.23;;;3.03;;
62790;SDS011;48830;53.426;10.300;2023-02-01T04:16:03;13.97;;;2.83;;
62790;SDS011;48830;53.426;10.300;2023-02-01T04:18:29;12.73;;;2.93;;
62790;SDS011;48830;53.426;10.300;2023-02-01T04:20:54;11.93;;;2.77;;
62790;SDS011;48830;53.426;10.300;2023-02-01T04:23:20;13.87;;;2.80;;
62790;SDS011;48830;53.426;10.300;2023-02-01T04:25:45;14.83;;;2.83;;
62790;SDS011;48830;53.426;10.300;2023-02-01T04:28:11;12.20;;;2.80;;
62790;SDS011;48830;53.426;10.300;2023-02-01T04:30:37;13.13;;;2.50;;
62790;SDS011;48830;53.426;10.300;2023-02-01T04:33:02;9.13;;;2.60;;
62790;SDS011;48830;53.426;10.300;2023-02-01T04:35:30;13.00;;;3.07;;
62790;SDS011;48830;53.426;10.300;2023-02-01T04:37:56;10.73;;;2.60;;
62790;SDS011;48830;53.426;10.300;2023-02-01T04:40:21;17.97;;;2.83;;
62790;SDS011;48830;53.426;10.300;2023-02-01T04:42:47;9.13;;;2.23;;
62790;SDS011;48830;53.426;10.300;2023-02-01T04:45:12;10.23;;;2.10;;
62790;SDS011;48830;53.426;10.300;2023-02-01T04:47:38;11.07;;;2.17;;
62790;SDS011;48830;53.426;10.300;2023-02-01T04:50:04;10.77;;;2.70;;
62790;SDS011;48830;53.426;10.300;2023-02-01T04:52:31;11.63;;;2.57;;
62790;SDS011;48830;53.426;10.300;2023-02-01T04:54:57;14.73;;;2.70;;
62790;SDS011;48830;53.426;10.300;2023-02-01T04:57:24;8.07;;;2.20;;
62790;SDS011;48830;53.426;10.300;2023-02-01T04:59:50;8.53;;;2.30;;
62790;SDS011;48830;53.426;10.300;2023-02-01T05:02:15;12.17;;;2.63;;
62790;SDS011;48830;53.426;10.300;2023-02-01T05:04:41;14.43;;;2.53;;
62790;SDS011;48830;53.426;10.300;2023-02-01T05:07:06;10.50;;;2.50;;
62790;SDS011;48830;53.426;10.300;2023-02-01T05:09:32;13.23;;;2.30;;
62790;SDS011;48830;53.426;10.300;2023-02-01T05:11:57;12.47;;;2.60;;
62790;SDS011;48830;53.426;10.300;2023-02-01T05:14:41;12.07;;;2.10;;
62790;SDS011;48830;53.426;10.300;2023-02-01T05:17:06;7.53;;;1.87;;
62790;SDS011;48830;53.426;10.300;2023-02-01T05:19:32;9.17;;;1.83;;
62790;SDS011;48830;53.426;10.300;2023-02-01T05:21:57;6.60;;;1.73;;
62790;SDS011;48830;53.426;10.300;2023-02-01T05:24:23;9.23;;;1.67;;
62790;SDS011;48830;53.426;10.300;2023-02-01T05:26:48;6.33;;;1.70;;
62790;SDS011;48830;53.426;10.300;2023-02-01T05:29:15;3.57;;;1.07;;
62790;SDS011;48830;53.426;10.300;2023-02-01T05:31:41;3.20;;;1.10;;
62790;SDS011;48830;53.426;10.300;2023-02-01T05:34:09;4.20;;;1.43;;
62790;SDS011;48830;53.426;10.300;2023-02-01T05:36:35;3.00;;;1.10;;
62790;SDS011;48830;53.426;10.300;2023-02-01T05:39:00;2.60;;;1.03;;
62790;SDS011;48830;53.426;10.300;2023-02-01T05:41:26;3.03;;;1.00;;
62790;SDS011;48830;53.426;10.300;2023-02-01T05:43:51;2.37;;;0.80;;
62790;SDS011;48830;53.426;10.300;2023-02-01T05:46:17;1.20;;;0.63;;
62790;SDS011;48830;53.426;10.300;2023-02-01T05:48:42;4.20;;;0.90;;
62790;SDS011;48830;53.426;10.300;2023-02-01T05:51:08;3.27;;;0.90;;
62790;SDS011;48830;53.426;10.300;2023-02-01T05:53:35;3.07;;;0.80;;
62790;SDS011;48830;53.426;10.300;2023-02-01T05:56:01;2.23;;;0.73;;
62790;SDS011;48830;53.426;10.300;2023-02-01T05:58:27;1.07;;;0.80;;
62790;SDS011;48830;53.426;10.300;2023-02-01T06:00:52;2.10;;;0.77;;
62790;SDS011;48830;53.426;10.300;2023-02-01T06:03:18;2.17;;;0.80;;
62790;SDS011;48830;53.426;10.300;2023-02-01T06:05:44;2.10;;;0.80;;
62790;SDS011;48830;53.426;10.300;2023-02-01T06:08:10;1.80;;;0.83;;
62790;SDS011;48830;53.426;10.300;2023-02-01T06:10:36;0.60;;;0.60;;
62790;SDS011;48830;53.426;10.300;2023-02-01T06:13:01;1.87;;;0.80;;
62790;SDS011;48830;53.426;10.300;2023-02-01T06:15:28;1.60;;;0.87;;
62790;SDS011;48830;53.426;10.300;2023-02-01T06:17:55;1.83;;;0.60;;
62790;SDS011;48830;53.426;10.300;2023-02-01T06:20:21;2.40;;;0.90;;
62790;SDS011;48830;53.426;10.300;2023-02-01T06:22:46;1.57;;;0.80;;
62790;SDS011;48830;53.426;10.300;2023-02-01T06:25:12;1.43;;;0.80;;
62790;SDS011;48830;53.426;10.300;2023-02-01T06:27:37;0.63;;;0.60;;
62790;SDS011;48830;53.426;10.300;2023-02-01T06:30:04;5.13;;;0.90;;
62790;SDS011;48830;53.426;10.300;2023-02-01T06:32:30;1.50;;;0.90;;
62790;SDS011;48830;53.426;10.300;2023-02-01T06:34:56;1.63;;;0.90;;
62790;SDS011;48830;53.426;10.300;2023-02-01T06:37:22;3.33;;;0.90;;
62790;SDS011;48830;53.426;10.300;2023-02-01T06:39:50;3.30;;;0.90;;
62790;SDS011;48830;53.426;10.300;2023-02-01T06:42:15;1.17;;;0.90;;
62790;SDS011;48830;53.426;10.300;2023-02-01T06:44:41;2.63;;;1.03;;
62790;SDS011;48830;53.426;10.300;2023-02-01T06:47:06;4.23;;;1.37;;
62790;SDS011;48830;53.426;10.300;2023-02-01T06:49:32;5.77;;;1.63;;
62790;SDS011;48830;53.426;10.300;2023-02-01T06:51:57;5.43;;;1.30;;
62790;SDS011;48830;53.426;10.300;2023-02-01T06:54:25;4.50;;;1.40;;
62790;SDS011;48830;53.426;10.300;2023-02-01T06:56:57;5.00;;;1.40;;
62790;SDS011;48830;53.426;10.300;2023-02-01T06:59:22;4.90;;;1.80;;
62790;SDS011;48830;53.426;10.300;2023-02-01T07:01:48;8.43;;;1.87;;
62790;SDS011;48830;53.426;10.300;2023-02-01T07:04:13;8.57;;;2.07;;
62790;SDS011;48830;53.426;10.300;2023-02-01T07:06:39;7.47;;;1.87;;
62790;SDS011;48830;53.426;10.300;2023-02-01T07:09:05;7.17;;;1.90;;
62790;SDS011;48830;53.426;10.300;2023-02-01T07:11:31;10.23;;;2.57;;
62790;SDS011;48830;53.426;10.300;2023-02-01T07:13:57;12.17;;;2.40;;
62790;SDS011;48830;53.426;10.300;2023-02-01T07:16:22;11.57;;;2.43;;
62790;SDS011;48830;53.426;10.300;2023-02-01T07:18:49;9.57;;;2.70;;
62790;SDS011;48830;53.426;10.300;2023-02-01T07:21:16;10.53;;;2.80;;
62790;SDS011;48830;53.426;10.300;2023-02-01T07:23:41;10.40;;;2.83;;
62790;SDS011;48830;53.426;10.300;2023-02-01T07:26:07;17.53;;;3.67;;
62790;SDS011;48830;53.426;10.300;2023-02-01T07:28:37;13.47;;;2.63;;
62790;SDS011;48830;53.426;10.300;2023-02-01T07:31:10;9.90;;;2.67;;
62790;SDS011;48830;53.426;10.300;2023-02-01T07:33:38;11.80;;;2.27;;
62790;SDS011;48830;53.426;10.300;2023-02-01T07:36:05;11.60;;;3.17;;
62790;SDS011;48830;53.426;10.300;2023-02-01T07:38:32;12.37;;;2.67;;
62790;SDS011;48830;53.426;10.300;2023-02-01T07:41:02;12.83;;;2.40;;
62790;SDS011;48830;53.426;10.300;2023-02-01T07:43:29;10.90;;;2.43;;
62790;SDS011;48830;53.426;10.300;2023-02-01T07:45:54;13.90;;;2.97;;
62790;SDS011;48830;53.426;10.300;2023-02-01T07:48:21;13.13;;;2.60;;
62790;SDS011;48830;53.426;10.300;2023-02-01T07:50:48;14.53;;;3.07;;
62790;SDS011;48830;53.426;10.300;2023-02-01T07:53:21;14.57;;;2.90;;
62790;SDS011;48830;53.426;10.300;2023-02-01T07:55:47;11.50;;;3.00;;
62790;SDS011;48830;53.426;10.300;2023-02-01T07:58:12;15.57;;;3.00;;
62790;SDS011;48830;53.426;10.300;2023-02-01T08:00:38;13.30;;;2.90;;
62790;SDS011;48830;53.426;10.300;2023-02-01T08:03:22;17.17;;;3.50;;
62790;SDS011;48830;53.426;10.300;2023-02-01T08:05:47;17.50;;;4.03;;
62790;SDS011;48830;53.426;10.300;2023-02-01T08:08:12;17.07;;;3.87;;
62790;SDS011;48830;53.426;10.300;2023-02-01T08:10:38;20.07;;;4.23;;
62790;SDS011;48830;53.426;10.300;2023-02-01T08:13:03;16.23;;;3.73;;
62790;SDS011;48830;53.426;10.300;2023-02-01T08:15:29;18.97;;;4.17;;
62790;SDS011;48830;53.426;10.300;2023-02-01T08:17:55;19.37;;;4.23;;
62790;SDS011;48830;53.426;10.300;2023-02-01T08:20:21;22.60;;;4.60;;
62790;SDS011;48830;53.426;10.300;2023-02-01T08:22:51;16.43;;;3.73;;
62790;SDS011;48830;53.426;10.300;2023-02-01T08:25:16;20.33;;;4.10;;
62790;SDS011;48830;53.426;10.300;2023-02-01T08:27:42;21.97;;;4.23;;
62790;SDS011;48830;53.426;10.300;2023-02-01T08:30:08;22.40;;;4.17;;
62790;SDS011;48830;53.426;10.300;2023-02-01T08:32:36;23.83;;;4.17;;
62790;SDS011;48830;53.426;10.300;2023-02-01T08:35:02;24.53;;;4.47;;
62790;SDS011;48830;53.426;10.300;2023-02-01T08:37:29;15.50;;;3.97;;
62790;SDS011;48830;53.426;10.300;2023-02-01T08:39:54;22.93;;;4.40;;
62790;SDS011;48830;53.426;10.300;2023-02-01T08:42:20;18.57;;;4.27;;
62790;SDS011;48830;53.426;10.300;2023-02-01T08:45:04;21.43;;;4.97;;
62790;SDS011;48830;53.426;10.300;2023-02-01T08:47:30;22.37;;;4.00;;
62790;SDS011;48830;53.426;10.300;2023-02-01T08:49:56;21.03;;;4.43;;
62790;SDS011;48830;53.426;10.300;2023-02-01T08:52:22;21.27;;;4.93;;
62790;SDS011;48830;53.426;10.300;2023-02-01T08:54:47;17.20;;;3.80;;
62790;SDS011;48830;53.426;10.300;2023-02-01T08:57:13;18.90;;;3.70;;
62790;SDS011;48830;53.426;10.300;2023-02-01T08:59:38;21.50;;;3.67;;
62790;SDS011;48830;53.426;10.300;2023-02-01T09:02:03;19.70;;;3.97;;
62790;SDS011;48830;53.426;10.300;2023-02-01T09:04:29;22.40;;;4.47;;
62790;SDS011;48830;53.426;10.300;2023-02-01T09:06:54;12.40;;;3.87;;
62790;SDS011;48830;53.426;10.300;2023-02-01T09:09:23;17.57;;;3.73;;
62790;SDS011;48830;53.426;10.300;2023-02-01T09:11:49;20.30;;;4.23;;
62790;SDS011;48830;53.426;10.300;2023-02-01T09:14:17;20.70;;;4.00;;
62790;SDS011;48830;53.426;10.300;2023-02-01T09:16:43;20.63;;;4.87;;
62790;SDS011;48830;53.426;10.300;2023-02-01T09:19:08;17.20;;;4.57;;
62790;SDS011;48830;53.426;10.300;2023-02-01T09:21:34;16.00;;;4.13;;
62790;SDS011;48830;53.426;10.300;2023-02-01T09:24:00;16.20;;;4.80;;
62790;SDS011;48830;53.426;10.300;2023-02-01T09:26:25;14.70;;;3.67;;
62790;SDS011;48830;53.426;10.300;2023-02-01T09:28:51;17.57;;;3.30;;
62790;SDS011;48830;53.426;10.300;2023-02-01T09:31:17;16.70;;;3.90;;
62790;SDS011;48830;53.426;10.300;2023-02-01T09:33:42;13.17;;;4.03;;
62790;SDS011;48830;53.426;10.300;2023-02-01T09:36:08;16.80;;;3.53;;
62790;SDS011;48830;53.426;10.300;2023-02-01T09:38:34;17.10;;;4.20;;
62790;SDS011;48830;53.426;10.300;2023-02-01T09:40:59;17.77;;;3.67;;
62790;SDS011;48830;53.426;10.300;2023-02-01T09:46:24;17.00;;;4.07;;
62790;SDS011;48830;53.426;10.300;2023-02-01T09:48:53;19.13;;;4.03;;
62790;SDS011;48830;53.426;10.300;2023-02-01T09:54:19;22.27;;;3.70;;
62790;SDS011;48830;53.426;10.300;2023-02-01T09:59:43;21.37;;;4.10;;
62790;SDS011;48830;53.426;10.300;2023-02-01T10:02:20;17.30;;;3.77;;
62790;SDS011;48830;53.426;10.300;2023-02-01T10:04:48;14.20;;;3.37;;
62790;SDS011;48830;53.426;10.300;2023-02-01T10:09:45;16.90;;;4.03;;
62790;SDS011;48830;53.426;10.300;2023-02-01T10:15:18;12.38;;;3.40;;
62790;SDS011;48830;53.426;10.300;2023-02-01T10:23:15;13.27;;;3.90;;
62790;SDS011;48830;53.426;10.300;2023-02-01T10:26:00;14.73;;;3.27;;
62790;SDS011;48830;53.426;10.300;2023-02-01T10:28:34;15.27;;;3.33;;
62790;SDS011;48830;53.426;10.300;2023-02-01T10:31:03;12.93;;;3.00;;
62790;SDS011;48830;53.426;10.300;2023-02-01T10:33:41;15.77;;;3.30;;
62790;SDS011;48830;53.426;10.300;2023-02-01T10:38:44;15.37;;;3.13;;
62790;SDS011;48830;53.426;10.300;2023-02-01T10:41:15;15.57;;;3.50;;
62790;SDS011;48830;53.426;10.300;2023-02-01T10:43:43;15.63;;;4.10;;
62790;SDS011;48830;53.426;10.300;2023-02-01T10:46:10;11.60;;;2.90;;
62790;SDS011;48830;53.426;10.300;2023-02-01T10:48:36;15.50;;;3.37;;
62790;SDS011;48830;53.426;10.300;2023-02-01T10:51:14;16.70;;;3.33;;
62790;SDS011;48830;53.426;10.300;2023-02-01T10:53:47;18.37;;;3.90;;
62790;SDS011;48830;53.426;10.300;2023-02-01T10:56:24;19.50;;;3.80;;
62790;SDS011;48830;53.426;10.300;2023-02-01T10:59:01;19.07;;;3.40;;
62790;SDS011;48830;53.426;10.300;2023-02-01T11:01:34;16.70;;;4.20;;
62790;SDS011;48830;53.426;10.300;2023-02-01T11:04:07;15.37;;;3.70;;
62790;SDS011;48830;53.426;10.300;2023-02-01T11:06:37;18.90;;;4.30;;
62790;SDS011;48830;53.426;10.300;2023-02-01T11:11:56;17.50;;;4.07;;
62790;SDS011;48830;53.426;10.300;2023-02-01T11:17:33;12.97;;;3.30;;
62790;SDS011;48830;53.426;10.300;2023-02-01T11:20:00;15.60;;;3.60;;
62790;SDS011;48830;53.426;10.300;2023-02-01T11:22:27;19.20;;;3.90;;
62790;SDS011;48830;53.426;10.300;2023-02-01T11:24:54;14.33;;;3.50;;
62790;SDS011;48830;53.426;10.300;2023-02-01T11:27:21;17.13;;;3.70;;
62790;SDS011;48830;53.426;10.300;2023-02-01T11:29:52;13.83;;;3.83;;
62790;SDS011;48830;53.426;10.300;2023-02-01T11:32:22;21.27;;;3.97;;
62790;SDS011;48830;53.426;10.300;2023-02-01T11:34:51;19.27;;;3.83;;
62790;SDS011;48830;53.426;10.300;2023-02-01T11:37:21;18.87;;;3.37;;
62790;SDS011;48830;53.426;10.300;2023-02-01T11:39:53;16.57;;;3.90;;
62790;SDS011;48830;53.426;10.300;2023-02-01T11:42:23;21.67;;;4.53;;
62790;SDS011;48830;53.426;10.300;2023-02-01T11:44:50;17.40;;;4.17;;
62790;SDS011;48830;53.426;10.300;2023-02-01T11:47:19;22.37;;;3.93;;
62790;SDS011;48830;53.426;10.300;2023-02-01T11:49:59;19.27;;;4.07;;
62790;SDS011;48830;53.426;10.300;2023-02-01T12:00:59;9.10;;;2.37;;
62790;SDS011;48830;53.426;10.300;2023-02-01T12:11:59;11.80;;;2.60;;
62790;SDS011;48830;53.426;10.300;2023-02-01T12:14:56;14.33;;;2.80;;
62790;SDS011;48830;53.426;10.300;2023-02-01T12:28:33;10.90;;;2.50;;
62790;SDS011;48830;53.426;10.300;2023-02-01T12:39:22;9.30;;;2.97;;
62790;SDS011;48830;53.426;10.300;2023-02-01T12:41:53;7.47;;;1.93;;
62790;SDS011;48830;53.426;10.300;2023-02-01T12:44:50;7.93;;;1.70;;
62790;SDS011;48830;53.426;10.300;2023-02-01T12:47:41;6.90;;;1.50;;
62790;SDS011;48830;53.426;10.300;2023-02-01T12:50:28;6.90;;;1.70;;
62790;SDS011;48830;53.426;10.300;2023-02-01T12:53:06;4.90;;;1.77;;
62790;SDS011;48830;53.426;10.300;2023-02-01T12:55:39;3.70;;;1.30;;
62790;SDS011;48830;53.426;10.300;2023-02-01T13:01:07;3.47;;;1.00;;
62790;SDS011;48830;53.426;10.300;2023-02-01T13:06:24;3.93;;;1.30;;
62790;SDS011;48830;53.426;10.300;2023-02-01T13:08:58;2.53;;;0.90;;
62790;SDS011;48830;53.426;10.300;2023-02-01T13:11:39;3.30;;;1.27;;
62790;SDS011;48830;53.426;10.300;2023-02-01T13:17:12;1.63;;;0.70;;
62790;SDS011;48830;53.426;10.300;2023-02-01T13:19:42;3.23;;;0.80;;
62790;SDS011;48830;53.426;10.300;2023-02-01T13:25:03;1.87;;;1.00;;
62790;SDS011;48830;53.426;10.300;2023-02-01T13:27:43;2.17;;;0.87;;
62790;SDS011;48830;53.426;10.300;2023-02-01T13:33:03;4.50;;;1.27;;
62790;SDS011;48830;53.426;10.300;2023-02-01T13:35:50;1.20;;;0.80;;
62790;SDS011;48830;53.426;10.300;2023-02-01T13:38:44;2.93;;;0.90;;
62790;SDS011;48830;53.426;10.300;2023-02-01T13:41:31;1.50;;;0.80;;
62790;SDS011;48830;53.426;10.300;2023-02-01T13:44:03;1.43;;;1.00;;
62790;SDS011;48830;53.426;10.300;2023-02-01T13:46:41;2.10;;;1.17;;
62790;SDS011;48830;53.426;10.300;2023-02-01T13:49:25;2.03;;;1.00;;
62790;SDS011;48830;53.426;10.300;2023-02-01T13:51:54;0.97;;;0.77;;
62790;SDS011;48830;53.426;10.300;2023-02-01T13:54:36;1.90;;;1.10;;
62790;SDS011;48830;53.426;10.300;2023-02-01T13:57:04;1.23;;;0.80;;
62790;SDS011;48830;53.426;10.300;2023-02-01T14:05:09;2.07;;;1.00;;
62790;SDS011;48830;53.426;10.300;2023-02-01T14:07:35;1.20;;;0.83;;
62790;SDS011;48830;53.426;10.300;2023-02-01T14:13:05;1.87;;;1.07;;
62790;SDS011;48830;53.426;10.300;2023-02-01T14:15:38;3.57;;;1.10;;
62790;SDS011;48830;53.426;10.300;2023-02-01T14:23:42;3.50;;;1.37;;
62790;SDS011;48830;53.426;10.300;2023-02-01T14:26:16;1.87;;;1.10;;
62790;SDS011;48830;53.426;10.300;2023-02-01T14:29:01;2.87;;;1.13;;
62790;SDS011;48830;53.426;10.300;2023-02-01T14:31:37;3.57;;;1.40;;
62790;SDS011;48830;53.426;10.300;2023-02-01T14:34:15;5.73;;;1.50;;
62790;SDS011;48830;53.426;10.300;2023-02-01T14:37:05;4.73;;;1.57;;
62790;SDS011;48830;53.426;10.300;2023-02-01T14:55:48;8.43;;;1.87;;
62790;SDS011;48830;53.426;10.300;2023-02-01T14:58:47;7.00;;;1.77;;
62790;SDS011;48830;53.426;10.300;2023-02-01T15:06:44;4.57;;;1.70;;
62790;SDS011;48830;53.426;10.300;2023-02-01T15:09:18;5.80;;;1.50;;
62790;SDS011;48830;53.426;10.300;2023-02-01T15:14:25;6.93;;;1.70;;
62790;SDS011;48830;53.426;10.300;2023-02-01T15:16:52;7.77;;;2.00;;
62790;SDS011;48830;53.426;10.300;2023-02-01T15:19:21;7.60;;;1.80;;
62790;SDS011;48830;53.426;10.300;2023-02-01T15:21:50;10.23;;;2.77;;
62790;SDS011;48830;53.426;10.300;2023-02-01T15:24:22;12.70;;;2.27;;
62790;SDS011;48830;53.426;10.300;2023-02-01T15:26:49;7.83;;;2.43;;
62790;SDS011;48830;53.426;10.300;2023-02-01T15:29:16;9.63;;;3.23;;
62790;SDS011;48830;53.426;10.300;2023-02-01T15:31:47;15.27;;;2.80;;
62790;SDS011;48830;53.426;10.300;2023-02-01T15:34:14;10.97;;;2.57;;
62790;SDS011;48830;53.426;10.300;2023-02-01T15:36:40;12.43;;;2.80;;
62790;SDS011;48830;53.426;10.300;2023-02-01T15:39:27;8.00;;;2.47;;
62790;SDS011;48830;53.426;10.300;2023-02-01T15:41:58;10.60;;;2.07;;
62790;SDS011;48830;53.426;10.300;2023-02-01T15:44:37;9.53;;;2.53;;
62790;SDS011;48830;53.426;10.300;2023-02-01T15:47:12;8.67;;;2.10;;
62790;SDS011;48830;53.426;10.300;2023-02-01T15:49:53;10.23;;;2.10;;
62790;SDS011;48830;53.426;10.300;2023-02-01T15:52:24;9.17;;;1.90;;
62790;SDS011;48830;53.426;10.300;2023-02-01T15:54:57;6.77;;;1.90;;
62790;SDS011;48830;53.426;10.300;2023-02-01T15:57:27;9.33;;;2.00;;
62790;SDS011;48830;53.426;10.300;2023-02-01T16:00:00;9.77;;;2.30;;
62790;SDS011;48830;53.426;10.300;2023-02-01T16:02:42;8.30;;;2.33;;
62790;SDS011;48830;53.426;10.300;2023-02-01T16:08:13;10.77;;;2.23;;
62790;SDS011;48830;53.426;10.300;2023-02-01T16:10:41;11.63;;;2.30;;
62790;SDS011;48830;53.426;10.300;2023-02-01T16:13:09;13.30;;;2.73;;
62790;SDS011;48830;53.426;10.300;2023-02-01T16:15:35;11.77;;;2.40;;
62790;SDS011;48830;53.426;10.300;2023-02-01T16:18:01;14.90;;;2.93;;
62790;SDS011;48830;53.426;10.300;2023-02-01T16:20:26;12.33;;;3.40;;
62790;SDS011;48830;53.426;10.300;2023-02-01T16:22:52;17.10;;;4.13;;
62790;SDS011;48830;53.426;10.300;2023-02-01T16:25:17;16.97;;;2.97;;
62790;SDS011;48830;53.426;10.300;2023-02-01T16:27:43;13.10;;;2.80;;
62790;SDS011;48830;53.426;10.300;2023-02-01T16:30:09;11.03;;;2.97;;
62790;SDS011;48830;53.426;10.300;2023-02-01T16:32:35;15.43;;;2.87;;
62790;SDS011;48830;53.426;10.300;2023-02-01T16:35:05;11.03;;;3.10;;
62790;SDS011;48830;53.426;10.300;2023-02-01T16:37:40;12.30;;;2.90;;
62790;SDS011;48830;53.426;10.300;2023-02-01T16:40:08;15.97;;;3.10;;
62790;SDS011;48830;53.426;10.300;2023-02-01T16:42:38;17.40;;;3.40;;
62790;SDS011;48830;53.426;10.300;2023-02-01T16:45:04;11.37;;;2.70;;
62790;SDS011;48830;53.426;10.300;2023-02-01T16:47:30;15.37;;;3.47;;
62790;SDS011;48830;53.426;10.300;2023-02-01T16:49:55;20.27;;;4.43;;
62790;SDS011;48830;53.426;10.300;2023-02-01T16:52:21;12.17;;;3.10;;
62790;SDS011;48830;53.426;10.300;2023-02-01T16:54:49;18.77;;;3.90;;
62790;SDS011;48830;53.426;10.300;2023-02-01T16:57:15;18.87;;;4.10;;
62790;SDS011;48830;53.426;10.300;2023-02-01T16:59:42;18.93;;;3.43;;
62790;SDS011;48830;53.426;10.300;2023-02-01T17:02:15;21.93;;;4.13;;
62790;SDS011;48830;53.426;10.300;2023-02-01T17:04:44;19.90;;;3.73;;